Time;durP1;ratioP1;P1;durP2;ratioP2;P2;SDS_P1;SDS_P2;PMS_P1;PMS_P2;Temp;Humidity;BMP_temperature;BMP_pressure;BME280_temperature;BME280_humidity;BME280_pressure;Samples;Min_cycle;Max_cycle;Signal;HPM_P1;HPM_P2
2023/04/17 00:00:44;;;;;;;7.30;4.50;;;12.80;99.90;;;;;;5125785;27;20084;-74
2023/04/17 00:03:13;;;;;;;8.30;4.78;;;12.90;99.90;;;;;;5100894;27;20067;-73
2023/04/17 00:05:42;;;;;;;8.93;4.60;;;12.80;99.90;;;;;;5093725;27;20410;-74
2023/04/17 00:08:11;;;;;;;9.88;4.93;;;12.90;99.90;;;;;;5098850;27;20050;-73
2023/04/17 00:10:38;;;;;;;10.48;4.40;;;12.90;99.90;;;;;;5122896;27;20058;-74
2023/04/17 00:13:06;;;;;;;7.55;5.07;;;12.80;99.90;;;;;;5122737;27;20035;-75
2023/04/17 00:15:36;;;;;;;8.20;4.40;;;12.80;99.90;;;;;;5099465;28;20131;-75
2023/04/17 00:18:04;;;;;;;11.70;4.85;;;12.80;99.90;;;;;;5092851;27;20043;-74
2023/04/17 00:20:32;;;;;;;7.95;4.95;;;12.90;99.90;;;;;;5128222;27;20058;-73
2023/04/17 00:22:59;;;;;;;8.57;4.85;;;12.80;99.90;;;;;;5109412;27;20043;-75
2023/04/17 00:25:34;;;;;;;9.13;4.30;;;12.80;99.90;;;;;;5131983;27;20043;-76
2023/04/17 00:28:02;;;;;;;11.52;4.70;;;12.80;99.90;;;;;;5096307;27;20470;-75
2023/04/17 00:30:30;;;;;;;10.02;4.55;;;12.80;99.90;;;;;;5087518;27;20055;-77
2023/04/17 00:32:57;;;;;;;6.97;4.85;;;12.80;99.90;;;;;;5102733;27;20486;-73
2023/04/17 00:35:27;;;;;;;9.27;5.10;;;12.80;99.90;;;;;;5097002;28;20047;-76
2023/04/17 00:37:56;;;;;;;9.30;4.75;;;12.80;99.90;;;;;;5124867;27;20114;-74
2023/04/17 00:40:24;;;;;;;;;;;12.70;99.90;;;;;;5086064;28;20075;-75
2023/04/17 00:42:54;;;;;;;8.57;4.80;;;12.80;99.90;;;;;;5117463;27;19919;-75
2023/04/17 00:45:22;;;;;;;7.57;4.55;;;12.80;99.90;;;;;;5096665;27;20057;-81
2023/04/17 00:47:57;;;;;;;6.75;5.00;;;12.90;99.90;;;;;;5100011;27;20486;-74
2023/04/17 00:50:26;;;;;;;8.63;4.75;;;12.80;99.90;;;;;;5113305;27;20039;-75
2023/04/17 00:52:54;;;;;;;8.07;4.88;;;12.80;99.90;;;;;;5092528;28;20055;-72
2023/04/17 00:55:22;;;;;;;7.40;5.15;;;12.70;99.90;;;;;;5082016;28;20488;-75
2023/04/17 00:57:49;;;;;;;8.52;5.18;;;12.70;99.90;;;;;;5111655;28;20141;-76
2023/04/17 01:00:17;;;;;;;10.65;5.20;;;12.80;99.90;;;;;;5094380;28;20407;-74
2023/04/17 01:02:48;;;;;;;9.27;5.10;;;12.80;99.90;;;;;;5111946;28;20051;-78
2023/04/17 01:05:16;;;;;;;9.18;5.05;;;12.70;99.90;;;;;;5076237;28;20112;-75
2023/04/17 01:07:45;;;;;;;8.00;4.78;;;12.60;99.90;;;;;;5094515;28;20044;-71
2023/04/17 01:10:12;;;;;;;8.73;5.22;;;12.70;99.90;;;;;;5112973;28;20028;-74
2023/04/17 01:12:40;;;;;;;8.35;4.68;;;12.80;99.90;;;;;;5111819;28;20507;-74
2023/04/17 01:15:07;;;;;;;8.52;4.88;;;12.60;99.90;;;;;;5099103;28;20051;-77
2023/04/17 01:17:37;;;;;;;11.68;5.28;;;12.60;99.90;;;;;;5096512;28;20534;-75
2023/04/17 01:20:09;;;;;;;10.07;5.63;;;12.50;99.90;;;;;;5083661;28;20400;-72
2023/04/17 01:22:37;;;;;;;9.32;4.88;;;12.60;99.90;;;;;;5116652;28;20448;-74
2023/04/17 01:25:05;;;;;;;10.05;5.28;;;12.60;99.90;;;;;;5116660;28;20043;-75
2023/04/17 01:27:34;;;;;;;9.68;5.22;;;12.60;99.90;;;;;;5096251;28;20059;-74
2023/04/17 01:30:04;;;;;;;9.02;5.05;;;12.70;99.90;;;;;;5112595;28;20122;-77
2023/04/17 01:32:31;;;;;;;10.10;4.97;;;12.80;99.90;;;;;;5093226;28;20047;-76
2023/04/17 01:34:59;;;;;;;7.82;4.85;;;12.90;99.90;;;;;;5131159;28;20038;-75
2023/04/17 01:37:26;;;;;;;10.18;5.30;;;12.70;99.90;;;;;;5112751;28;20055;-75
2023/04/17 01:39:54;;;;;;;8.85;5.57;;;12.70;99.90;;;;;;5131262;28;20046;-74
2023/04/17 01:42:21;;;;;;;7.10;5.50;;;12.60;99.90;;;;;;5131280;28;20398;-73
2023/04/17 01:44:49;;;;;;;10.13;5.75;;;12.20;99.90;;;;;;5130939;28;20382;-75
2023/04/17 01:47:16;;;;;;;14.40;8.00;;;12.20;99.90;;;;;;5112012;28;20406;-72
2023/04/17 01:49:43;;;;;;;11.90;7.80;;;12.20;99.90;;;;;;5130966;28;20114;-75
2023/04/17 01:52:13;;;;;;;13.32;8.13;;;11.90;99.90;;;;;;5112223;28;20062;-76
2023/04/17 01:54:40;;;;;;;11.52;8.30;;;11.80;99.90;;;;;;5112714;28;20043;-73
2023/04/17 01:57:07;;;;;;;15.13;9.18;;;11.70;99.90;;;;;;5112420;28;20375;-73
2023/04/17 01:59:34;;;;;;;13.15;9.02;;;11.70;99.90;;;;;;5130802;28;20054;-75
2023/04/17 02:02:02;;;;;;;13.70;9.32;;;11.60;99.90;;;;;;5112188;28;20498;-74
2023/04/17 02:04:29;;;;;;;15.15;9.88;;;11.60;99.90;;;;;;5131806;27;20043;-73
2023/04/17 02:06:56;;;;;;;15.00;9.52;;;11.70;99.90;;;;;;5110616;28;20051;-74
2023/04/17 02:09:24;;;;;;;15.30;9.30;;;11.60;99.90;;;;;;5114340;27;20044;-73
2023/04/17 02:11:51;;;;;;;14.02;10.35;;;11.70;99.90;;;;;;5095850;28;20490;-74
2023/04/17 02:14:21;;;;;;;15.60;10.75;;;11.70;99.90;;;;;;5128362;27;20047;-75
2023/04/17 02:16:48;;;;;;;15.20;10.02;;;11.80;99.90;;;;;;5096280;28;20058;-73
2023/04/17 02:19:16;;;;;;;15.57;9.73;;;11.80;99.90;;;;;;5121020;27;20031;-75
2023/04/17 02:21:43;;;;;;;14.93;9.95;;;11.70;99.90;;;;;;5062941;28;20043;-74
2023/04/17 02:24:11;;;;;;;14.88;9.80;;;11.80;99.90;;;;;;5125851;27;20043;-78
2023/04/17 02:26:39;;;;;;;16.80;10.15;;;11.80;99.90;;;;;;5095387;28;20063;-74
2023/04/17 02:29:06;;;;;;;13.95;10.23;;;11.70;99.90;;;;;;5126399;27;20055;-75
2023/04/17 02:31:33;;;;;;;16.33;9.68;;;11.70;99.90;;;;;;5133408;27;20415;-74
2023/04/17 02:34:01;;;;;;;17.10;10.65;;;11.60;99.90;;;;;;5133651;27;20046;-75
2023/04/17 02:36:28;;;;;;;13.98;9.77;;;11.70;99.90;;;;;;5115887;27;20042;-75
2023/04/17 02:38:55;;;;;;;13.07;9.38;;;11.80;99.90;;;;;;5133596;27;20049;-74
2023/04/17 02:41:23;;;;;;;14.10;9.70;;;11.90;99.90;;;;;;5120911;27;20031;-79
2023/04/17 02:43:53;;;;;;;13.30;9.60;;;11.80;99.90;;;;;;5096137;27;20535;-74
2023/04/17 02:46:21;;;;;;;14.20;10.10;;;11.70;99.90;;;;;;5095329;28;20054;-73
2023/04/17 02:48:48;;;;;;;13.25;9.18;;;11.80;99.90;;;;;;5100324;27;20051;-75
2023/04/17 02:51:15;;;;;;;14.82;10.15;;;11.70;99.90;;;;;;5120291;27;20035;-72
2023/04/17 02:53:43;;;;;;;13.75;8.95;;;11.80;99.90;;;;;;5128205;27;20074;-75
2023/04/17 02:56:10;;;;;;;15.35;9.20;;;11.70;99.90;;;;;;5121382;27;20039;-74
2023/04/17 02:58:38;;;;;;;13.18;9.10;;;11.70;99.90;;;;;;5127801;27;20032;-74
2023/04/17 03:01:05;;;;;;;11.63;8.48;;;11.60;99.90;;;;;;5115833;27;20057;-74
2023/04/17 03:03:33;;;;;;;13.73;9.38;;;11.80;99.90;;;;;;5130098;27;20067;-73
2023/04/17 03:06:01;;;;;;;13.55;8.68;;;12.00;99.90;;;;;;5131204;27;20046;-75
2023/04/17 03:08:28;;;;;;;12.20;8.90;;;12.10;99.90;;;;;;5128631;27;20043;-74
2023/04/17 03:10:58;;;;;;;13.48;8.18;;;12.30;99.90;;;;;;5112559;27;20490;-81
2023/04/17 03:13:29;;;;;;;15.68;8.60;;;12.30;99.90;;;;;;5113369;27;20047;-75
2023/04/17 03:15:57;;;;;;;14.43;8.82;;;12.30;99.90;;;;;;5134068;27;20040;-74
2023/04/17 03:18:24;;;;;;;15.07;9.30;;;12.30;99.90;;;;;;5112400;27;20074;-75
2023/04/17 03:20:52;;;;;;;15.95;9.10;;;12.30;99.90;;;;;;5088192;27;20039;-74
2023/04/17 03:23:20;;;;;;;13.00;8.77;;;12.20;99.90;;;;;;5085050;27;20417;-76
2023/04/17 03:25:48;;;;;;;10.18;7.75;;;12.30;99.90;;;;;;5104158;28;20058;-74
2023/04/17 03:28:15;;;;;;;13.02;8.93;;;12.30;99.90;;;;;;5096293;28;20039;-75
2023/04/17 03:30:43;;;;;;;11.60;8.10;;;12.20;99.90;;;;;;5095516;28;20084;-75
2023/04/17 03:33:13;;;;;;;13.98;8.07;;;12.30;99.90;;;;;;5096414;28;20036;-76
2023/04/17 03:35:45;;;;;;;13.25;8.57;;;12.40;99.90;;;;;;5092518;27;20047;-75
2023/04/17 03:38:12;;;;;;;9.75;7.75;;;12.40;99.90;;;;;;5125783;27;20045;-74
2023/04/17 03:40:40;;;;;;;9.93;7.57;;;12.30;99.90;;;;;;5095702;27;20039;-75
2023/04/17 03:43:08;;;;;;;14.13;8.43;;;12.30;99.90;;;;;;5106340;28;20047;-74
2023/04/17 03:45:35;;;;;;;11.65;8.05;;;12.40;99.90;;;;;;5112598;27;20409;-74
2023/04/17 03:48:02;;;;;;;11.65;7.45;;;12.40;99.90;;;;;;5103685;27;20372;-76
2023/04/17 03:50:29;;;;;;;9.45;7.13;;;12.40;99.90;;;;;;5118796;27;20039;-75
2023/04/17 03:52:57;;;;;;;9.75;5.82;;;12.30;99.90;;;;;;5114981;27;20043;-74
2023/04/17 03:55:24;;;;;;;7.28;5.60;;;12.20;99.90;;;;;;5129337;27;20483;-73
2023/04/17 03:58:00;;;;;;;9.00;5.63;;;12.20;99.90;;;;;;5094072;28;20046;-79
2023/04/17 04:00:38;;;;;;;7.50;5.00;;;12.10;99.90;;;;;;5099180;27;20070;-73
2023/04/17 04:03:06;;;;;;;6.55;4.78;;;12.10;99.90;;;;;;5113566;27;20039;-73
2023/04/17 04:05:34;;;;;;;6.95;4.70;;;12.10;99.90;;;;;;5112381;27;20643;-73
2023/04/17 04:08:01;;;;;;;7.00;5.00;;;12.00;99.90;;;;;;5086062;28;20404;-74
2023/04/17 04:10:29;;;;;;;6.15;4.28;;;12.20;99.90;;;;;;5098486;28;20071;-73
2023/04/17 04:13:18;;;;;;;5.15;3.67;;;12.20;99.90;;;;;;5098628;28;20039;-78
2023/04/17 04:16:00;;;;;;;4.55;3.75;;;12.20;99.90;;;;;;5101801;27;20050;-74
2023/04/17 04:18:27;;;;;;;4.85;3.55;;;12.10;99.90;;;;;;5094337;28;20063;-73
2023/04/17 04:20:55;;;;;;;4.82;3.50;;;12.10;99.90;;;;;;5112406;28;20100;-74
2023/04/17 04:23:23;;;;;;;5.53;3.85;;;12.10;99.90;;;;;;5093849;28;20043;-74
2023/04/17 04:25:51;;;;;;;4.70;3.70;;;12.10;99.90;;;;;;5093462;28;20408;-73
2023/04/17 04:28:18;;;;;;;4.97;3.42;;;11.70;99.90;;;;;;5093342;28;20048;-74
2023/04/17 04:30:49;;;;;;;4.35;3.60;;;11.60;99.90;;;;;;5094251;28;20418;-76
2023/04/17 04:33:20;;;;;;;5.13;3.70;;;11.80;99.90;;;;;;5085229;27;20043;-77
2023/04/17 04:35:54;;;;;;;8.25;3.95;;;11.90;99.90;;;;;;5095086;27;20421;-75
2023/04/17 04:38:29;;;;;;;;;;;11.80;99.90;;;;;;5114351;27;20035;-77
2023/04/17 04:41:04;;;;;;;5.68;3.78;;;12.00;99.90;;;;;;5093220;28;19919;-74
2023/04/17 04:43:32;;;;;;;5.80;3.80;;;12.00;99.90;;;;;;5088821;27;20488;-74
2023/04/17 04:46:00;;;;;;;4.93;3.90;;;12.00;99.90;;;;;;5097063;27;20039;-75
2023/04/17 04:48:28;;;;;;;3.97;3.40;;;12.00;99.90;;;;;;5131864;27;20535;-73
2023/04/17 04:50:56;;;;;;;4.68;3.50;;;12.00;99.90;;;;;;5118334;27;20474;-74
2023/04/17 04:53:23;;;;;;;4.78;3.70;;;12.00;99.90;;;;;;5118819;27;20058;-74
2023/04/17 04:55:51;;;;;;;7.47;3.80;;;12.00;99.90;;;;;;5076712;28;20044;-76
2023/04/17 04:58:21;;;;;;;4.55;3.50;;;11.90;99.90;;;;;;5091229;27;20035;-75
2023/04/17 05:00:49;;;;;;;4.57;3.38;;;11.60;99.90;;;;;;5119511;27;20424;-73
2023/04/17 05:03:16;;;;;;;6.35;3.45;;;11.30;99.90;;;;;;5131493;27;20039;-75
2023/04/17 05:05:44;;;;;;;4.47;3.60;;;11.40;99.90;;;;;;5131876;27;20039;-78
2023/04/17 05:08:17;;;;;;;5.07;3.50;;;11.50;99.90;;;;;;5110271;28;20118;-74
2023/04/17 05:10:44;;;;;;;4.80;3.47;;;11.40;99.90;;;;;;5111519;28;20047;-75
2023/04/17 05:13:12;;;;;;;4.55;3.78;;;11.30;99.90;;;;;;5111976;28;20042;-76
2023/04/17 05:15:40;;;;;;;9.00;6.13;;;11.30;99.90;;;;;;5098497;28;20051;-73
2023/04/17 05:18:07;;;;;;;132.10;75.63;;;11.60;99.90;;;;;;5121571;28;20066;-73
2023/04/17 05:20:36;;;;;;;34.28;24.95;;;11.90;99.90;;;;;;5117492;28;20047;-70
2023/04/17 05:23:03;;;;;;;146.77;84.47;;;12.00;99.90;;;;;;5116616;28;20044;-74
2023/04/17 05:25:31;;;;;;;75.65;46.30;;;12.20;99.90;;;;;;5113162;28;20039;-74
2023/04/17 05:27:58;;;;;;;55.83;34.35;;;12.20;99.90;;;;;;5086955;28;20062;-77
2023/04/17 05:30:27;;;;;;;18.73;12.15;;;12.20;99.90;;;;;;5059318;28;20502;-75
2023/04/17 05:32:54;;;;;;;6.07;4.57;;;12.10;99.90;;;;;;5068269;28;20043;-74
2023/04/17 05:35:22;;;;;;;4.80;3.70;;;12.00;99.90;;;;;;5074438;28;20044;-76
2023/04/17 05:37:49;;;;;;;5.00;3.42;;;11.90;99.90;;;;;;5068407;28;20040;-76
2023/04/17 05:40:17;;;;;;;4.38;3.55;;;11.80;99.90;;;;;;5075326;28;20091;-74
2023/04/17 05:42:44;;;;;;;4.90;3.67;;;11.90;99.90;;;;;;5088924;28;20032;-75
2023/04/17 05:45:14;;;;;;;5.20;3.60;;;11.80;99.90;;;;;;5059585;28;20045;-75
2023/04/17 05:47:41;;;;;;;4.65;3.40;;;11.70;99.90;;;;;;5074281;28;20776;-77
2023/04/17 05:50:17;;;;;;;5.00;3.70;;;11.50;99.90;;;;;;5074484;28;20094;-78
2023/04/17 05:52:56;;;;;;;5.10;3.58;;;11.60;99.90;;;;;;5054634;28;20453;-78
2023/04/17 05:55:24;;;;;;;5.32;3.55;;;11.80;99.90;;;;;;5059102;28;20447;-75
2023/04/17 05:57:52;;;;;;;4.80;3.50;;;11.80;99.90;;;;;;5083420;28;20099;-75
2023/04/17 06:00:21;;;;;;;5.57;4.22;;;11.70;99.90;;;;;;5087966;28;20127;-75
2023/04/17 06:02:49;;;;;;;4.93;3.60;;;11.40;99.90;;;;;;5080254;28;20361;-75
2023/04/17 06:05:17;;;;;;;4.47;3.42;;;11.40;99.90;;;;;;5081427;28;20047;-79
2023/04/17 06:07:47;;;;;;;4.60;3.33;;;11.60;99.90;;;;;;5063225;28;20041;-75
2023/04/17 06:10:14;;;;;;;4.55;3.20;;;11.50;99.90;;;;;;5074374;28;20048;-75
2023/04/17 06:12:44;;;;;;;4.25;3.38;;;11.30;99.90;;;;;;5068303;28;20043;-74
2023/04/17 06:15:12;;;;;;;4.95;3.67;;;11.40;99.90;;;;;;5057204;28;20059;-78
2023/04/17 06:17:40;;;;;;;5.50;3.83;;;11.70;99.90;;;;;;5058139;28;20044;-72
2023/04/17 06:20:10;;;;;;;4.63;3.42;;;11.60;99.90;;;;;;5079777;28;20040;-74
2023/04/17 06:22:38;;;;;;;3.97;3.22;;;11.30;99.90;;;;;;5078643;28;20044;-81
2023/04/17 06:25:06;;;;;;;5.20;3.58;;;11.20;99.90;;;;;;5065820;28;20051;-75
2023/04/17 06:27:34;;;;;;;4.40;3.30;;;11.10;99.90;;;;;;5084832;27;20050;-73
2023/04/17 06:30:04;;;;;;;4.67;3.30;;;11.20;99.90;;;;;;5096498;27;20429;-81
2023/04/17 06:32:32;;;;;;;4.45;3.55;;;11.20;99.90;;;;;;5096352;27;20339;-78
2023/04/17 06:34:59;;;;;;;4.85;3.25;;;11.50;99.90;;;;;;5114159;27;20054;-79
2023/04/17 06:37:27;;;;;;;4.38;3.17;;;11.50;99.90;;;;;;5096013;27;20126;-77
2023/04/17 06:40:00;;;;;;;4.68;3.35;;;11.40;99.90;;;;;;5058510;23;20043;-80
2023/04/17 06:42:28;;;;;;;4.80;3.60;;;11.30;99.90;;;;;;5063744;28;20095;-82
2023/04/17 06:44:56;;;;;;;5.70;3.80;;;11.50;99.90;;;;;;5047026;28;20040;-76
2023/04/17 06:47:23;;;;;;;5.25;3.83;;;11.80;99.90;;;;;;5045721;28;20047;-76
2023/04/17 06:49:51;;;;;;;4.65;3.58;;;11.90;99.90;;;;;;5060618;28;20048;-76
2023/04/17 06:52:20;;;;;;;4.93;3.60;;;12.00;99.90;;;;;;5080219;28;20028;-79
2023/04/17 06:54:48;;;;;;;5.88;4.00;;;12.00;99.90;;;;;;5047094;28;20135;-75
2023/04/17 06:57:15;;;;;;;5.93;4.00;;;12.10;99.90;;;;;;5080078;28;20033;-77
2023/04/17 06:59:43;;;;;;;5.57;3.58;;;12.20;99.90;;;;;;5045302;28;20407;-81
2023/04/17 07:02:13;;;;;;;4.75;3.55;;;12.30;99.90;;;;;;5045944;28;20134;-74
2023/04/17 07:04:43;;;;;;;5.30;3.40;;;12.30;99.90;;;;;;5079748;28;20065;-78
2023/04/17 07:07:14;;;;;;;6.75;4.07;;;12.20;99.90;;;;;;5063379;28;20499;-75
2023/04/17 07:09:42;;;;;;;5.68;3.45;;;12.00;99.90;;;;;;5057019;28;20465;-76
2023/04/17 07:12:10;;;;;;;3.95;3.22;;;11.70;99.90;;;;;;5062346;28;20109;-79
2023/04/17 07:14:39;;;;;;;6.43;3.40;;;11.50;99.90;;;;;;5027052;28;20055;-77
2023/04/17 07:17:06;;;;;;;4.82;3.45;;;11.70;99.90;;;;;;5061015;28;20052;-75
2023/04/17 07:19:34;;;;;;;4.63;3.28;;;11.80;99.90;;;;;;5062746;28;20036;-75
2023/04/17 07:22:06;;;;;;;5.63;3.30;;;11.70;99.90;;;;;;5031316;28;20045;-75
2023/04/17 07:24:34;;;;;;;4.43;3.22;;;11.50;99.90;;;;;;5061375;28;20051;-74
2023/04/17 07:27:06;;;;;;;5.20;3.33;;;11.50;99.90;;;;;;5059908;28;20411;-72
2023/04/17 07:29:33;;;;;;;5.45;3.30;;;11.70;99.90;;;;;;5034163;28;20036;-74
2023/04/17 07:32:02;;;;;;;4.05;3.22;;;11.70;99.90;;;;;;5043759;28;20404;-75
2023/04/17 07:34:33;;;;;;;4.45;3.50;;;11.50;99.90;;;;;;5059666;28;20059;-75
2023/04/17 07:37:02;;;;;;;;;;;11.60;99.90;;;;;;5027235;28;20047;-74
2023/04/17 07:39:30;;;;;;;4.60;3.50;;;11.50;99.90;;;;;;5023592;28;19921;-75
2023/04/17 07:41:57;;;;;;;5.80;3.45;;;11.70;99.90;;;;;;5059567;28;20292;-73
2023/04/17 07:44:27;;;;;;;14.32;8.07;;;11.80;99.90;;;;;;5042008;28;20063;-74
2023/04/17 07:46:57;;;;;;;11.73;7.23;;;11.80;99.90;;;;;;5027296;28;20505;-73
2023/04/17 07:49:26;;;;;;;13.25;9.00;;;12.10;99.90;;;;;;5024496;28;20081;-73
2023/04/17 07:51:56;;;;;;;43.72;26.23;;;12.10;99.90;;;;;;5059969;28;20349;-73
2023/04/17 07:54:23;;;;;;;5.90;4.95;;;12.30;99.90;;;;;;5057405;28;20430;-71
2023/04/17 07:56:57;;;;;;;5.63;3.33;;;12.10;99.90;;;;;;5043671;28;20049;-73
2023/04/17 07:59:24;;;;;;;3.42;3.05;;;12.10;99.90;;;;;;5058397;28;20090;-71
2023/04/17 08:01:51;;;;;;;5.63;3.03;;;12.00;99.90;;;;;;5055711;28;20091;-72
2023/04/17 08:04:19;;;;;;;4.40;3.10;;;12.20;99.90;;;;;;5043529;28;20043;-72
2023/04/17 08:06:47;;;;;;;4.38;3.30;;;12.50;99.90;;;;;;5043207;28;20040;-72
2023/04/17 08:09:15;;;;;;;5.25;3.03;;;12.60;99.90;;;;;;5061006;28;20044;-72
2023/04/17 08:11:44;;;;;;;5.30;3.75;;;12.80;99.90;;;;;;5059960;28;20041;-72
2023/04/17 08:14:23;;;;;;;8.70;3.00;;;13.10;99.90;;;;;;5040256;28;20132;-73
2023/04/17 08:16:51;;;;;;;5.20;3.00;;;12.80;99.90;;;;;;5060198;28;20090;-72
2023/04/17 08:19:18;;;;;;;4.28;3.00;;;13.00;99.90;;;;;;5060377;28;20110;-71
2023/04/17 08:21:49;;;;;;;3.97;2.80;;;12.90;99.90;;;;;;5058635;28;20115;-72
2023/04/17 08:24:17;;;;;;;4.43;2.92;;;12.70;99.90;;;;;;5059125;28;20044;-76
2023/04/17 08:26:46;;;;;;;3.50;2.65;;;12.80;99.90;;;;;;5059373;28;20048;-69
2023/04/17 08:29:13;;;;;;;4.78;3.20;;;13.10;99.90;;;;;;5059116;28;20060;-71
2023/04/17 08:31:41;;;;;;;5.70;3.20;;;13.50;99.90;;;;;;5059730;28;20573;-70
2023/04/17 08:34:09;;;;;;;4.85;3.00;;;13.80;99.90;;;;;;5044050;28;20207;-71
2023/04/17 08:36:41;;;;;;;3.90;3.00;;;14.00;99.90;;;;;;5058917;28;20055;-70
2023/04/17 08:39:10;;;;;;;4.45;2.80;;;14.10;99.90;;;;;;5059255;28;20049;-71
2023/04/17 08:41:46;;;;;;;5.05;3.10;;;14.00;99.90;;;;;;5027100;28;20135;-72
2023/04/17 08:44:19;;;;;;;3.53;2.70;;;14.10;99.90;;;;;;5057429;28;20579;-71
2023/04/17 08:46:47;;;;;;;5.03;2.63;;;14.20;99.90;;;;;;5042000;28;20456;-73
2023/04/17 08:49:26;;;;;;;4.28;3.03;;;14.30;99.90;;;;;;5020957;28;20068;-74
2023/04/17 08:51:53;;;;;;;4.88;2.95;;;14.10;99.90;;;;;;5027831;28;20041;-77
2023/04/17 08:54:21;;;;;;;5.35;3.20;;;13.90;99.90;;;;;;5026602;28;20052;-74
2023/04/17 08:56:48;;;;;;;4.50;2.90;;;13.80;99.90;;;;;;5042961;28;20037;-71
2023/04/17 08:59:16;;;;;;;8.50;4.80;;;13.90;99.90;;;;;;5060105;28;20049;-69
2023/04/17 09:02:03;;;;;;;15.95;9.48;;;14.10;99.90;;;;;;5056814;28;20040;-73
2023/04/17 09:04:39;;;;;;;39.55;25.95;;;14.70;99.90;;;;;;5022209;28;20549;-71
2023/04/17 09:07:08;;;;;;;26.05;19.48;;;15.10;99.90;;;;;;5041303;28;20071;-69
2023/04/17 09:09:46;;;;;;;68.97;44.40;;;14.40;99.90;;;;;;5041322;28;20052;-68
2023/04/17 09:12:14;;;;;;;38.10;24.58;;;14.80;99.90;;;;;;5056925;28;20028;-69
2023/04/17 09:14:41;;;;;;;82.70;50.47;;;15.10;99.90;;;;;;5042858;28;20615;-66
2023/04/17 09:17:09;;;;;;;22.45;16.98;;;15.50;99.90;;;;;;5041490;28;20041;-71
2023/04/17 09:19:36;;;;;;;9.40;5.43;;;15.70;99.90;;;;;;5057408;28;20040;-71
2023/04/17 09:22:30;;;;;;;6.72;3.25;;;16.00;99.90;;;;;;5041380;28;20107;-70
2023/04/17 09:24:58;;;;;;;5.68;3.20;;;16.40;99.90;;;;;;5051739;28;20044;-72
2023/04/17 09:27:27;;;;;;;4.45;2.75;;;16.60;99.90;;;;;;5041676;28;20041;-69
2023/04/17 09:29:56;;;;;;;4.38;2.65;;;16.10;99.90;;;;;;5058215;28;20388;-72
2023/04/17 09:32:25;;;;;;;4.57;2.72;;;15.80;99.90;;;;;;5023880;28;20126;-70
2023/04/17 09:34:53;;;;;;;6.10;3.50;;;15.60;99.90;;;;;;5041429;28;20046;-70
2023/04/17 09:37:20;;;;;;;8.52;4.47;;;15.70;99.90;;;;;;5039682;28;20047;-74
2023/04/17 09:39:59;;;;;;;7.97;4.70;;;15.90;99.90;;;;;;5025709;28;20049;-67
2023/04/17 09:42:27;;;;;;;9.48;4.18;;;16.10;99.90;;;;;;5058091;28;20592;-68
2023/04/17 09:44:54;;;;;;;7.03;3.85;;;16.20;99.90;;;;;;5057442;28;20028;-72
2023/04/17 09:47:22;;;;;;;11.07;4.25;;;15.60;99.90;;;;;;5040917;28;20404;-69
2023/04/17 09:49:51;;;;;;;8.82;4.13;;;15.40;99.90;;;;;;5054448;28;20471;-70
2023/04/17 09:52:22;;;;;;;7.10;4.15;;;15.40;99.90;;;;;;5059122;28;20041;-73
2023/04/17 09:54:50;;;;;;;8.55;5.18;;;16.00;99.90;;;;;;5058250;28;20047;-69
2023/04/17 09:57:17;;;;;;;7.78;4.20;;;16.10;99.90;;;;;;5041353;28;20056;-68
2023/04/17 09:59:48;;;;;;;6.43;4.05;;;16.10;99.90;;;;;;5022217;28;20492;-69
2023/04/17 10:02:17;;;;;;;7.18;4.13;;;16.20;99.90;;;;;;5057952;28;20048;-70
2023/04/17 10:04:46;;;;;;;8.80;4.38;;;16.30;99.90;;;;;;5057179;28;20709;-70
2023/04/17 10:07:15;;;;;;;7.40;4.25;;;16.40;99.90;;;;;;5042343;28;20041;-72
2023/04/17 10:09:45;;;;;;;6.97;4.03;;;16.40;99.90;;;;;;5040775;28;20040;-70
2023/04/17 10:12:15;;;;;;;6.78;3.17;;;16.50;99.90;;;;;;5057258;28;20040;-75
2023/04/17 10:14:45;;;;;;;5.25;2.72;;;16.80;99.90;;;;;;5056546;28;20071;-73
2023/04/17 10:17:23;;;;;;;4.78;2.70;;;16.90;99.90;;;;;;5057532;28;20044;-70
2023/04/17 10:19:51;;;;;;;3.28;1.90;;;16.90;99.90;;;;;;5039282;28;20053;-71
2023/04/17 10:22:18;;;;;;;3.10;2.00;;;16.70;99.90;;;;;;5056967;28;20540;-74
2023/04/17 10:24:48;;;;;;;3.58;1.90;;;16.90;99.90;;;;;;5039286;28;20071;-71
2023/04/17 10:27:27;;;;;;;3.67;2.25;;;16.70;99.90;;;;;;5043262;28;20033;-70
2023/04/17 10:29:58;;;;;;;15.90;11.07;;;16.70;99.90;;;;;;5062103;28;20040;-70
2023/04/17 10:32:27;;;;;;;9.85;6.50;;;17.40;99.90;;;;;;5043594;28;20040;-72
2023/04/17 10:35:16;;;;;;;23.38;15.63;;;17.60;99.90;;;;;;5059199;28;20055;-68
2023/04/17 10:37:46;;;;;;;8.00;4.88;;;17.80;99.90;;;;;;5044673;28;20057;-71
2023/04/17 10:40:20;;;;;;;7.32;4.15;;;18.20;99.90;;;;;;5043037;28;20049;-76
2023/04/17 10:43:12;;;;;;;8.23;5.07;;;18.50;99.90;;;;;;5027438;28;20054;-82
2023/04/17 10:46:01;;;;;;;4.97;2.90;;;18.70;99.90;;;;;;5059680;28;20404;-79
2023/04/17 10:48:49;;;;;;;5.95;3.72;;;18.80;99.90;;;;;;5058326;28;20048;-73
2023/04/17 10:51:19;;;;;;;5.55;3.10;;;19.10;99.70;;;;;;5043713;28;20049;-73
2023/04/17 10:53:51;;;;;;;5.90;2.90;;;19.10;98.00;;;;;;5060627;28;20095;-74
2023/04/17 10:56:40;;;;;;;5.78;3.20;;;19.10;96.90;;;;;;5045020;28;20581;-71
2023/04/17 10:59:09;;;;;;;5.30;2.60;;;19.10;97.80;;;;;;5026434;28;20040;-71
2023/04/17 11:01:56;;;;;;;5.70;2.78;;;19.30;95.80;;;;;;5061223;28;20049;-72
2023/04/17 11:04:28;;;;;;;3.17;1.95;;;19.50;95.40;;;;;;5028604;28;20449;-71
2023/04/17 11:07:00;;;;;;;10.25;7.22;;;19.60;92.60;;;;;;5040615;28;20045;-77
2023/04/17 11:09:28;;;;;;;36.42;24.02;;;19.70;94.00;;;;;;5026857;28;20041;-74
2023/04/17 11:12:03;;;;;;;38.58;27.27;;;19.50;91.40;;;;;;5049959;28;20044;-73
2023/04/17 11:14:30;;;;;;;9.80;4.68;;;19.70;90.60;;;;;;5029395;28;20045;-77
2023/04/17 11:17:04;;;;;;;63.25;43.05;;;19.60;91.50;;;;;;5041486;28;20561;-76
2023/04/17 11:19:38;;;;;;;39.25;28.20;;;19.80;91.40;;;;;;5017353;23;20404;-74
2023/04/17 11:22:08;;;;;;;16.88;11.68;;;20.50;91.10;;;;;;5010724;28;20381;-72
2023/04/17 11:24:36;;;;;;;6.15;3.30;;;20.60;91.30;;;;;;4998980;28;20053;-78
2023/04/17 11:27:04;;;;;;;5.03;3.08;;;20.30;90.10;;;;;;4994504;28;20072;-72
2023/04/17 11:29:31;;;;;;;5.05;2.83;;;20.20;90.30;;;;;;4986442;28;20466;-79
2023/04/17 11:32:02;;;;;;;21.85;14.05;;;20.10;87.90;;;;;;5039467;28;20049;-73
2023/04/17 11:34:31;;;;;;;157.07;101.72;;;20.20;86.00;;;;;;5007725;28;20061;-73
2023/04/17 11:37:00;;;;;;;27.67;20.90;;;20.80;86.60;;;;;;5025746;28;20446;-75
2023/04/17 11:39:32;;;;;;;5.90;3.88;;;21.30;85.80;;;;;;4993976;28;20069;-74
2023/04/17 11:42:03;;;;;;;5.72;2.90;;;21.40;81.60;;;;;;5009000;28;20665;-74
2023/04/17 11:44:35;;;;;;;5.20;2.90;;;21.30;83.80;;;;;;4988117;28;20123;-74
2023/04/17 11:47:04;;;;;;;7.55;3.65;;;21.20;83.60;;;;;;5006021;28;20143;-71
2023/04/17 11:49:36;;;;;;;6.20;2.67;;;21.70;85.50;;;;;;5025836;28;20041;-77
2023/04/17 11:52:04;;;;;;;3.83;1.92;;;21.40;81.20;;;;;;5027746;28;20045;-76
2023/04/17 11:54:36;;;;;;;4.72;2.53;;;20.90;80.30;;;;;;5009996;28;20037;-74
2023/04/17 11:57:05;;;;;;;3.67;1.90;;;21.00;80.50;;;;;;5025591;28;20506;-77
2023/04/17 11:59:36;;;;;;;3.90;2.03;;;20.90;79.30;;;;;;5021546;28;20516;-74
2023/04/17 12:02:05;;;;;;;4.32;2.10;;;20.50;77.60;;;;;;5017100;28;20110;-73
2023/04/17 12:04:35;;;;;;;47.20;35.40;;;20.20;78.50;;;;;;5028166;28;20037;-73
2023/04/17 12:07:04;;;;;;;25.95;19.45;;;21.10;78.30;;;;;;5028540;28;20053;-71
2023/04/17 12:09:33;;;;;;;37.70;27.52;;;21.20;74.90;;;;;;5013364;28;20037;-74
2023/04/17 12:12:04;;;;;;;6.95;4.63;;;21.00;77.00;;;;;;5028868;28;20045;-72
2023/04/17 12:14:31;;;;;;;6.25;3.50;;;21.70;75.90;;;;;;5015121;28;20121;-77
2023/04/17 12:16:59;;;;;;;5.30;2.60;;;22.60;72.70;;;;;;5041665;28;20640;-73
2023/04/17 12:19:28;;;;;;;4.30;2.10;;;24.00;68.00;;;;;;5049992;28;20053;-72
2023/04/17 12:21:56;;;;;;;3.70;2.00;;;25.10;64.50;;;;;;5029151;28;20068;-72
2023/04/17 12:24:23;;;;;;;30.63;20.10;;;25.80;60.80;;;;;;5046616;28;20420;-72
2023/04/17 12:26:51;;;;;;;28.13;19.60;;;26.40;61.60;;;;;;5036403;28;20033;-76
2023/04/17 12:29:19;;;;;;;49.45;33.40;;;27.00;60.10;;;;;;5089743;22;20044;-79
2023/04/17 12:32:02;;;;;;;5.32;3.33;;;27.30;57.10;;;;;;5067228;28;20054;-81
2023/04/17 12:34:30;;;;;;;17.13;11.43;;;26.50;57.40;;;;;;5055076;28;20085;-70
2023/04/17 12:36:57;;;;;;;13.52;9.90;;;25.50;57.70;;;;;;5073273;28;20039;-74
2023/04/17 12:39:24;;;;;;;35.53;28.27;;;23.20;61.60;;;;;;5067894;28;20424;-80
2023/04/17 12:41:52;;;;;;;17.30;12.10;;;22.20;66.30;;;;;;5048766;28;20040;-80
2023/04/17 12:44:24;;;;;;;8.15;5.72;;;24.30;62.20;;;;;;5057946;28;20487;-72
2023/04/17 12:46:55;;;;;;;4.07;2.22;;;25.00;60.30;;;;;;5056137;28;20043;-73
2023/04/17 12:49:22;;;;;;;2.72;1.60;;;25.60;58.60;;;;;;5066944;28;20024;-78
2023/04/17 12:51:50;;;;;;;3.45;1.77;;;26.70;55.40;;;;;;5073741;28;20442;-76
2023/04/17 12:54:20;;;;;;;2.75;1.40;;;27.60;54.10;;;;;;5072813;28;20051;-75